createdAt,value
2023-05-16T00:01:55.498Z,7.40
2023-05-16T00:04:08.434Z,7.00
2023-05-16T00:06:21.108Z,8.50
2023-05-16T00:08:33.726Z,8.70
2023-05-16T00:10:46.358Z,9.10
2023-05-16T00:13:01.791Z,7.50
2023-05-16T00:15:14.436Z,8.40
2023-05-16T00:17:28.869Z,7.90
2023-05-16T00:19:42.247Z,8.60
2023-05-16T00:21:54.944Z,8.90
2023-05-16T00:24:07.656Z,10.20
2023-05-16T00:26:20.733Z,20.70
2023-05-16T00:28:33.298Z,26.20
2023-05-16T00:30:45.870Z,15.00
2023-05-16T00:32:58.406Z,10.50
2023-05-16T00:35:12.010Z,10.10
2023-05-16T00:37:24.632Z,11.70
2023-05-16T00:39:37.224Z,12.40
2023-05-16T00:41:49.836Z,10.90
2023-05-16T00:44:02.419Z,10.70
2023-05-16T00:46:15.379Z,10.00
2023-05-16T00:48:28.060Z,9.00
2023-05-16T00:50:40.801Z,9.70
2023-05-16T00:52:53.594Z,10.40
2023-05-16T00:55:06.861Z,9.20
2023-05-16T00:57:19.792Z,9.00
2023-05-16T00:59:33.426Z,9.80
2023-05-16T01:01:48.036Z,9.30
2023-05-16T01:04:01.229Z,9.70
2023-05-16T01:06:14.058Z,9.60
2023-05-16T01:08:26.654Z,9.10
2023-05-16T01:10:59.154Z,9.40
2023-05-16T01:13:33.189Z,10.50
2023-05-16T01:16:00.022Z,9.80
2023-05-16T01:18:33.853Z,9.50
2023-05-16T01:20:56.860Z,9.40
2023-05-16T01:23:51.275Z,9.40
2023-05-16T01:26:16.792Z,9.30
2023-05-16T01:28:30.692Z,9.50
2023-05-16T01:30:43.881Z,9.80
2023-05-16T01:32:56.659Z,10.30
2023-05-16T01:35:12.318Z,10.50
2023-05-16T01:37:36.085Z,10.90
2023-05-16T01:39:57.865Z,10.70
2023-05-16T01:42:17.095Z,11.10
2023-05-16T01:44:32.737Z,11.50
2023-05-16T01:46:47.508Z,11.60
2023-05-16T01:49:19.016Z,12.20
2023-05-16T01:51:33.820Z,11.50
2023-05-16T01:53:47.180Z,10.80
2023-05-16T01:56:02.172Z,11.10
2023-05-16T01:58:16.138Z,11.00
2023-05-16T02:00:29.018Z,9.30
2023-05-16T02:02:41.623Z,9.10
2023-05-16T02:04:54.281Z,8.50
2023-05-16T02:07:07.254Z,9.90
2023-05-16T02:09:19.804Z,7.90
2023-05-16T02:11:32.349Z,7.40
2023-05-16T02:13:44.872Z,7.20
2023-05-16T02:15:57.337Z,7.70
2023-05-16T02:18:09.904Z,6.50
2023-05-16T02:20:22.507Z,8.90
2023-05-16T02:22:35.061Z,9.20
2023-05-16T02:24:47.609Z,8.30
2023-05-16T02:27:00.149Z,7.40
2023-05-16T02:29:12.645Z,7.60
2023-05-16T02:31:29.575Z,6.50
2023-05-16T02:33:42.178Z,7.70
2023-05-16T02:35:55.322Z,7.40
2023-05-16T02:38:07.864Z,6.00
2023-05-16T02:40:20.365Z,6.10
2023-05-16T02:42:33.225Z,6.40
2023-05-16T02:44:45.989Z,6.50
2023-05-16T02:46:58.618Z,6.10
2023-05-16T02:49:11.196Z,6.10
2023-05-16T02:51:25.692Z,7.30
2023-05-16T02:53:38.255Z,6.90
2023-05-16T02:55:50.794Z,6.60
2023-05-16T02:58:03.445Z,6.50
2023-05-16T03:00:18.401Z,5.60
2023-05-16T03:02:31.402Z,6.00
2023-05-16T03:04:44.054Z,6.30
2023-05-16T03:06:56.683Z,6.20
2023-05-16T03:09:09.239Z,6.60
2023-05-16T03:11:25.887Z,6.40
2023-05-16T03:13:38.401Z,5.90
2023-05-16T03:15:51.714Z,5.60
2023-05-16T03:18:04.452Z,6.00
2023-05-16T03:20:16.993Z,6.00
2023-05-16T03:22:29.454Z,6.40
2023-05-16T03:24:42.060Z,6.80
2023-05-16T03:26:54.669Z,6.50
2023-05-16T03:29:07.214Z,6.70
2023-05-16T03:31:19.853Z,7.60
2023-05-16T03:33:32.386Z,6.10
2023-05-16T03:35:45.831Z,5.70
2023-05-16T03:37:58.515Z,8.10
2023-05-16T03:40:11.598Z,7.00
2023-05-16T03:42:24.129Z,6.70
2023-05-16T03:44:36.762Z,6.90
2023-05-16T03:46:51.340Z,7.40
2023-05-16T03:49:04.495Z,5.60
2023-05-16T03:51:17.340Z,5.50
2023-05-16T03:53:29.895Z,6.50
2023-05-16T03:55:42.417Z,5.50
2023-05-16T03:57:54.944Z,6.00
2023-05-16T04:00:08.736Z,5.40
2023-05-16T04:02:22.097Z,6.00
2023-05-16T04:04:34.787Z,7.90
2023-05-16T04:06:47.322Z,5.40
2023-05-16T04:08:59.854Z,7.00
2023-05-16T04:11:12.417Z,6.70
2023-05-16T04:13:25.456Z,7.30
2023-05-16T04:15:38.039Z,7.20
2023-05-16T04:17:50.646Z,5.70
2023-05-16T04:20:04.828Z,6.10
2023-05-16T04:22:17.398Z,5.80
2023-05-16T04:24:29.941Z,6.80
2023-05-16T04:26:42.428Z,6.10
2023-05-16T04:28:54.942Z,7.00
2023-05-16T04:31:08.145Z,9.50
2023-05-16T04:33:20.679Z,6.40
2023-05-16T04:35:33.738Z,8.10
2023-05-16T04:37:46.757Z,8.70
2023-05-16T04:39:59.299Z,7.00
2023-05-16T04:42:12.099Z,7.70
2023-05-16T04:44:26.294Z,8.30
2023-05-16T04:46:39.240Z,6.60
2023-05-16T04:48:52.099Z,8.80
2023-05-16T04:51:04.864Z,6.60
2023-05-16T04:53:17.399Z,7.70
2023-05-16T04:55:30.119Z,6.80
2023-05-16T04:57:42.941Z,6.60
2023-05-16T04:59:55.768Z,6.70
2023-05-16T05:02:08.400Z,8.70
2023-05-16T05:04:21.109Z,7.40
2023-05-16T05:06:33.702Z,8.90
2023-05-16T05:08:46.270Z,6.70
2023-05-16T05:10:58.750Z,6.10
2023-05-16T05:13:11.549Z,7.50
2023-05-16T05:15:24.145Z,6.10
2023-05-16T05:17:38.060Z,5.80
2023-05-16T05:19:50.759Z,6.40
2023-05-16T05:22:03.402Z,5.70
2023-05-16T05:24:15.910Z,6.30
2023-05-16T05:26:29.023Z,6.40
2023-05-16T05:28:45.648Z,5.50
2023-05-16T05:31:05.276Z,6.80
2023-05-16T05:33:21.149Z,5.50
2023-05-16T05:35:33.819Z,5.00
2023-05-16T05:37:46.478Z,6.00
2023-05-16T05:39:59.348Z,7.10
2023-05-16T05:42:12.153Z,6.30
2023-05-16T05:44:24.712Z,6.80
2023-05-16T05:46:37.711Z,5.90
2023-05-16T05:48:50.746Z,6.70
2023-05-16T05:51:03.643Z,5.50
2023-05-16T05:53:16.266Z,5.80
2023-05-16T05:55:28.900Z,5.10
2023-05-16T05:57:41.607Z,6.00
2023-05-16T05:59:54.213Z,5.40
2023-05-16T06:02:08.062Z,5.50
2023-05-16T06:04:21.306Z,5.90
2023-05-16T06:06:33.833Z,5.80
2023-05-16T06:08:46.375Z,6.10
2023-05-16T06:11:00.103Z,5.70
2023-05-16T06:13:12.858Z,5.60
2023-05-16T06:15:26.481Z,6.90
2023-05-16T06:17:39.217Z,5.00
2023-05-16T06:19:51.787Z,5.10
2023-05-16T06:22:04.442Z,7.40
2023-05-16T06:24:17.141Z,5.60
2023-05-16T06:26:29.683Z,5.90
2023-05-16T06:28:42.208Z,6.10
2023-05-16T06:30:55.243Z,6.10
2023-05-16T06:33:07.906Z,5.70
2023-05-16T06:35:20.569Z,7.80
2023-05-16T06:37:33.055Z,5.50
2023-05-16T06:39:45.618Z,6.30
2023-05-16T06:41:58.221Z,5.80
2023-05-16T06:44:11.439Z,6.80
2023-05-16T06:46:24.050Z,5.50
2023-05-16T06:48:36.691Z,5.90
2023-05-16T06:50:51.859Z,6.20
2023-05-16T06:53:05.085Z,5.90
2023-05-16T06:55:17.637Z,5.90
2023-05-16T06:57:30.293Z,5.50
2023-05-16T06:59:43.128Z,5.60
2023-05-16T07:01:55.903Z,6.40
2023-05-16T07:04:08.657Z,6.30
2023-05-16T07:06:21.301Z,5.90
2023-05-16T07:08:35.880Z,5.30
2023-05-16T07:10:48.635Z,5.40
2023-05-16T07:13:01.983Z,5.80
2023-05-16T07:15:14.870Z,6.00
2023-05-16T07:17:27.693Z,6.90
2023-05-16T07:19:40.448Z,5.70
2023-05-16T07:21:53.979Z,7.10
2023-05-16T07:24:06.975Z,6.50
2023-05-16T07:26:22.263Z,9.30
2023-05-16T07:28:34.889Z,6.10
2023-05-16T07:30:47.537Z,6.30
2023-05-16T07:33:00.324Z,6.30
2023-05-16T07:35:13.446Z,6.20
2023-05-16T07:37:26.123Z,6.80
2023-05-16T07:39:42.255Z,5.60
2023-05-16T07:41:54.795Z,6.60
2023-05-16T07:44:07.366Z,6.50
2023-05-16T07:46:19.986Z,6.40
2023-05-16T07:48:32.711Z,6.20
2023-05-16T07:50:45.520Z,6.10
2023-05-16T07:52:58.075Z,6.50
2023-05-16T07:55:10.788Z,6.30
2023-05-16T07:57:25.070Z,6.20
2023-05-16T07:59:38.042Z,7.40
2023-05-16T08:01:51.166Z,6.40
2023-05-16T08:04:03.818Z,7.20
2023-05-16T08:06:16.827Z,6.60
2023-05-16T08:08:29.451Z,6.10
2023-05-16T08:10:42.080Z,6.40
2023-05-16T08:12:54.690Z,5.80
2023-05-16T08:15:07.931Z,8.40
2023-05-16T08:17:20.681Z,5.80
2023-05-16T08:19:33.218Z,6.50
2023-05-16T08:21:45.837Z,7.30
2023-05-16T08:23:58.489Z,6.10
2023-05-16T08:26:11.082Z,6.00
2023-05-16T08:28:23.663Z,7.30
2023-05-16T08:30:36.244Z,6.50
2023-05-16T08:32:48.977Z,6.60
2023-05-16T08:35:02.007Z,6.00
2023-05-16T08:37:16.659Z,6.00
2023-05-16T08:39:31.487Z,6.40
2023-05-16T08:41:44.119Z,6.10
2023-05-16T08:43:57.312Z,5.80
2023-05-16T08:46:10.895Z,7.00
2023-05-16T08:48:24.461Z,6.60
2023-05-16T08:50:37.704Z,7.20
2023-05-16T08:52:53.291Z,6.80
2023-05-16T08:55:11.491Z,5.90
2023-05-16T08:57:25.534Z,6.20
2023-05-16T08:59:38.280Z,7.60
2023-05-16T09:01:51.151Z,6.60
2023-05-16T09:04:07.443Z,6.00
2023-05-16T09:06:20.265Z,5.80
2023-05-16T09:08:33.359Z,5.80
2023-05-16T09:10:46.281Z,6.40
2023-05-16T09:12:58.951Z,5.10
2023-05-16T09:15:12.259Z,6.60
2023-05-16T09:17:36.049Z,5.50
2023-05-16T09:19:57.370Z,6.00
2023-05-16T09:22:12.272Z,5.60
2023-05-16T09:24:25.975Z,6.30
2023-05-16T09:26:39.551Z,5.40
2023-05-16T09:28:55.026Z,5.50
2023-05-16T09:31:28.038Z,5.20
2023-05-16T09:33:42.426Z,6.00
2023-05-16T09:35:58.730Z,5.60
2023-05-16T09:38:16.600Z,6.60
2023-05-16T09:40:29.641Z,5.30
2023-05-16T09:42:43.950Z,5.60
2023-05-16T09:44:57.542Z,7.40
2023-05-16T09:47:10.244Z,5.70
2023-05-16T09:49:22.950Z,5.50
2023-05-16T09:51:35.506Z,5.30
2023-05-16T09:53:48.240Z,5.50
2023-05-16T09:56:01.235Z,6.10
2023-05-16T09:58:17.885Z,5.90
2023-05-16T10:00:32.761Z,6.90
2023-05-16T10:02:45.925Z,6.70
2023-05-16T10:05:00.206Z,8.30
2023-05-16T10:07:14.654Z,5.60
2023-05-16T10:09:27.728Z,6.40
2023-05-16T10:11:42.603Z,6.50
2023-05-16T10:13:55.935Z,7.40
2023-05-16T10:16:12.184Z,7.80
2023-05-16T10:18:30.312Z,6.40
2023-05-16T10:20:45.280Z,8.90
2023-05-16T10:22:58.444Z,6.70
2023-05-16T10:25:25.960Z,7.30
2023-05-16T10:27:40.259Z,6.50
2023-05-16T10:29:55.063Z,6.60
2023-05-16T10:32:09.045Z,7.10
2023-05-16T10:34:22.235Z,7.40
2023-05-16T10:36:35.052Z,7.20
2023-05-16T10:38:48.037Z,7.90
2023-05-16T10:41:01.722Z,8.50
2023-05-16T10:43:24.696Z,8.40
2023-05-16T10:45:41.918Z,8.70
2023-05-16T10:47:56.059Z,10.30
2023-05-16T10:50:09.073Z,9.50
2023-05-16T10:52:33.828Z,9.40
2023-05-16T10:54:54.532Z,9.40
2023-05-16T10:57:16.974Z,8.90
2023-05-16T10:59:29.573Z,8.90
2023-05-16T11:01:42.470Z,9.70
2023-05-16T11:04:00.899Z,10.20
2023-05-16T11:06:13.670Z,15.10
2023-05-16T11:08:26.948Z,10.00
2023-05-16T11:10:39.554Z,8.40
2023-05-16T11:12:53.761Z,11.50
2023-05-16T11:15:20.952Z,11.90
2023-05-16T11:17:41.828Z,10.00
2023-05-16T11:19:59.277Z,9.60
2023-05-16T11:22:24.096Z,9.90
2023-05-16T11:24:39.032Z,10.20
2023-05-16T11:26:53.647Z,10.00
2023-05-16T11:29:06.458Z,10.10
2023-05-16T11:31:20.119Z,9.70
2023-05-16T11:33:35.653Z,10.80
2023-05-16T11:36:15.822Z,10.40
2023-05-16T11:38:31.190Z,11.30
2023-05-16T11:40:44.622Z,11.10
2023-05-16T11:43:04.642Z,10.50
2023-05-16T11:45:21.504Z,11.00
2023-05-16T11:47:36.449Z,9.70
2023-05-16T11:49:49.627Z,11.00
2023-05-16T11:52:03.694Z,12.00
2023-05-16T11:54:16.327Z,11.10
2023-05-16T11:56:29.051Z,11.80
2023-05-16T11:58:42.579Z,11.80
2023-05-16T12:00:55.945Z,11.40
2023-05-16T12:03:08.688Z,11.70
2023-05-16T12:05:27.332Z,12.30
2023-05-16T12:07:40.782Z,12.80
2023-05-16T12:09:53.908Z,13.20
2023-05-16T12:12:07.493Z,13.80
2023-05-16T12:14:20.606Z,13.30
2023-05-16T12:16:34.263Z,11.80
2023-05-16T12:18:47.743Z,11.90
2023-05-16T12:21:02.249Z,11.80
2023-05-16T12:23:15.048Z,12.70
2023-05-16T12:25:29.245Z,12.70
2023-05-16T12:27:45.653Z,13.30
2023-05-16T12:29:58.790Z,14.00
2023-05-16T12:32:11.396Z,13.20
2023-05-16T12:34:24.420Z,12.40
2023-05-16T12:36:36.978Z,12.20
2023-05-16T12:38:49.869Z,12.50
2023-05-16T12:41:03.331Z,11.40
2023-05-16T12:43:23.388Z,12.20
2023-05-16T12:45:36.031Z,12.60
2023-05-16T12:47:49.676Z,12.90
2023-05-16T12:50:02.299Z,12.60
2023-05-16T12:52:20.516Z,12.80
2023-05-16T12:54:33.229Z,12.80
2023-05-16T12:56:48.274Z,13.00
2023-05-16T12:59:03.367Z,12.80
2023-05-16T13:01:16.026Z,13.50
2023-05-16T13:03:28.946Z,14.30
2023-05-16T13:05:42.221Z,14.20
2023-05-16T13:07:54.783Z,14.50
2023-05-16T13:10:10.711Z,13.90
2023-05-16T13:12:26.960Z,15.00
2023-05-16T13:14:41.218Z,14.90
2023-05-16T13:16:55.311Z,14.90
2023-05-16T13:19:07.978Z,15.90
2023-05-16T13:21:22.202Z,15.90
2023-05-16T13:23:34.816Z,16.50
2023-05-16T13:25:49.279Z,16.50
2023-05-16T13:28:02.337Z,17.10
2023-05-16T13:30:15.460Z,17.50
2023-05-16T13:32:28.184Z,17.90
2023-05-16T13:34:40.870Z,18.00
2023-05-16T13:36:54.980Z,19.10
2023-05-16T13:39:08.974Z,20.30
2023-05-16T13:41:22.277Z,19.80
2023-05-16T13:43:34.834Z,19.10
2023-05-16T13:45:47.436Z,21.00
2023-05-16T13:48:00.199Z,20.20
2023-05-16T13:50:12.839Z,22.40
2023-05-16T13:52:25.762Z,21.00
2023-05-16T13:54:40.443Z,25.00
2023-05-16T13:56:53.497Z,20.20
2023-05-16T13:59:07.460Z,20.10
2023-05-16T14:01:21.545Z,19.50
2023-05-16T14:03:36.566Z,22.30
2023-05-16T14:05:49.589Z,23.00
2023-05-16T14:08:02.818Z,22.40
2023-05-16T14:10:15.567Z,22.20
2023-05-16T14:12:28.185Z,22.80
2023-05-16T14:14:40.735Z,22.20
2023-05-16T14:16:53.320Z,21.60
2023-05-16T14:19:06.403Z,23.00
2023-05-16T14:21:19.707Z,26.10
2023-05-16T14:23:32.280Z,22.10
2023-05-16T14:25:44.865Z,20.60
2023-05-16T14:27:57.630Z,23.40
2023-05-16T14:30:10.643Z,25.50
2023-05-16T14:32:23.372Z,24.80
2023-05-16T14:34:36.155Z,22.90
2023-05-16T14:36:48.781Z,22.00
2023-05-16T14:39:01.416Z,21.00
2023-05-16T14:41:14.162Z,20.40
2023-05-16T14:43:26.793Z,21.30
2023-05-16T14:45:39.560Z,21.30
2023-05-16T14:47:52.567Z,21.20
2023-05-16T14:50:06.016Z,19.00
2023-05-16T14:52:18.640Z,21.60
2023-05-16T14:54:31.250Z,19.80
2023-05-16T14:56:45.008Z,19.70
2023-05-16T14:58:57.802Z,20.10
2023-05-16T15:01:10.652Z,19.60
2023-05-16T15:03:23.397Z,24.70
2023-05-16T15:05:36.022Z,20.90
2023-05-16T15:07:49.872Z,20.80
2023-05-16T15:10:02.518Z,19.80
2023-05-16T15:12:15.969Z,17.70
2023-05-16T15:14:28.503Z,21.70
2023-05-16T15:16:41.226Z,21.90
2023-05-16T15:18:53.860Z,19.80
2023-05-16T15:21:06.556Z,20.60
2023-05-16T15:23:19.113Z,19.70
2023-05-16T15:25:31.848Z,19.00
2023-05-16T15:27:44.436Z,20.20
2023-05-16T15:29:57.020Z,19.20
2023-05-16T15:32:11.266Z,18.30
2023-05-16T15:34:25.055Z,19.50
2023-05-16T15:36:37.671Z,18.30
2023-05-16T15:38:50.252Z,18.40
2023-05-16T15:41:21.899Z,18.40
2023-05-16T15:43:38.413Z,17.70
2023-05-16T15:45:52.413Z,17.70
2023-05-16T15:48:05.268Z,20.00
2023-05-16T15:50:17.970Z,19.90
2023-05-16T15:52:30.564Z,20.90
2023-05-16T15:54:43.112Z,17.40
2023-05-16T15:56:55.811Z,20.80
2023-05-16T15:59:08.504Z,19.10
2023-05-16T16:01:21.127Z,17.50
2023-05-16T16:03:33.855Z,16.80
2023-05-16T16:05:47.990Z,16.60
2023-05-16T16:08:00.757Z,17.00
2023-05-16T16:10:13.406Z,16.60
2023-05-16T16:12:29.568Z,15.30
2023-05-16T16:14:42.156Z,16.20
2023-05-16T16:16:54.848Z,17.80
2023-05-16T16:19:08.525Z,15.70
2023-05-16T16:21:21.536Z,16.10
2023-05-16T16:23:34.131Z,15.30
2023-05-16T16:25:46.724Z,16.60
2023-05-16T16:28:00.006Z,15.10
2023-05-16T16:30:12.828Z,15.30
2023-05-16T16:32:25.437Z,14.40
2023-05-16T16:34:38.000Z,14.50
2023-05-16T16:36:50.665Z,14.10
2023-05-16T16:39:05.345Z,14.40
2023-05-16T16:41:17.987Z,15.00
2023-05-16T16:43:30.654Z,14.20
2023-05-16T16:45:43.257Z,14.30
2023-05-16T16:47:55.938Z,15.30
2023-05-16T16:50:09.170Z,13.80
2023-05-16T16:52:21.808Z,13.50
2023-05-16T16:54:34.371Z,13.30
2023-05-16T16:56:47.710Z,12.20
2023-05-16T16:59:00.358Z,13.30
2023-05-16T17:01:13.266Z,12.80
2023-05-16T17:03:28.581Z,12.90
2023-05-16T17:05:42.366Z,13.30
2023-05-16T17:07:54.914Z,12.90
2023-05-16T17:10:08.042Z,13.20
2023-05-16T17:12:22.079Z,14.10
2023-05-16T17:14:34.914Z,13.90
2023-05-16T17:16:47.564Z,14.70
2023-05-16T17:19:00.254Z,15.70
2023-05-16T17:21:12.975Z,14.10
2023-05-16T17:23:25.792Z,13.70
2023-05-16T17:25:38.375Z,13.70
2023-05-16T17:27:51.032Z,13.90
2023-05-16T17:30:04.788Z,13.30
2023-05-16T17:32:19.286Z,13.30
2023-05-16T17:34:33.169Z,13.40
2023-05-16T17:36:45.732Z,13.30
2023-05-16T17:38:59.232Z,14.00
2023-05-16T17:41:11.823Z,13.90
2023-05-16T17:43:24.453Z,13.60
2023-05-16T17:45:38.162Z,14.10
2023-05-16T17:47:51.084Z,14.30
2023-05-16T17:50:03.919Z,14.70
2023-05-16T17:52:16.878Z,15.30
2023-05-16T17:54:31.964Z,15.30
2023-05-16T17:56:46.694Z,17.30
2023-05-16T17:58:59.285Z,15.20
2023-05-16T18:01:12.993Z,16.10
2023-05-16T18:03:25.647Z,16.10
2023-05-16T18:05:38.695Z,16.60
2023-05-16T18:07:51.732Z,18.60
2023-05-16T18:10:04.954Z,15.40
2023-05-16T18:12:17.640Z,17.00
2023-05-16T18:14:30.207Z,16.80
2023-05-16T18:16:43.842Z,16.30
2023-05-16T18:18:57.761Z,16.60
2023-05-16T18:21:10.537Z,16.20
2023-05-16T18:23:24.749Z,16.60
2023-05-16T18:25:37.357Z,17.60
2023-05-16T18:27:49.949Z,17.90
2023-05-16T18:30:04.038Z,17.50
2023-05-16T18:32:16.656Z,18.00
2023-05-16T18:34:29.292Z,18.10
2023-05-16T18:36:41.854Z,18.30
2023-05-16T18:38:54.760Z,17.80
2023-05-16T18:41:07.506Z,18.10
2023-05-16T18:43:20.185Z,18.20
2023-05-16T18:45:33.863Z,18.80
2023-05-16T18:47:46.828Z,18.50
2023-05-16T18:49:59.622Z,18.80
2023-05-16T18:52:12.292Z,18.60
2023-05-16T18:54:24.904Z,18.60
2023-05-16T18:56:37.568Z,19.10
2023-05-16T18:58:50.151Z,18.60
2023-05-16T19:01:03.741Z,18.80
2023-05-16T19:03:17.235Z,18.60
2023-05-16T19:05:30.365Z,19.10
2023-05-16T19:07:43.331Z,19.50
2023-05-16T19:09:55.926Z,19.90
2023-05-16T19:12:08.633Z,18.80
2023-05-16T19:14:21.217Z,19.70
2023-05-16T19:16:34.187Z,20.90
2023-05-16T19:18:46.981Z,20.60
2023-05-16T19:20:59.730Z,20.40
2023-05-16T19:23:12.283Z,21.80
2023-05-16T19:25:24.879Z,21.90
2023-05-16T19:27:37.532Z,21.90
2023-05-16T19:29:50.415Z,20.40
2023-05-16T19:32:03.143Z,20.30
2023-05-16T19:34:15.789Z,20.20
2023-05-16T19:36:28.613Z,20.90
2023-05-16T19:38:41.196Z,20.90
2023-05-16T19:40:53.898Z,19.40
2023-05-16T19:43:06.491Z,20.10
2023-05-16T19:45:19.122Z,20.80
2023-05-16T19:47:31.951Z,19.60
2023-05-16T19:49:44.826Z,19.10
2023-05-16T19:51:57.435Z,19.30
2023-05-16T19:54:10.163Z,19.70
2023-05-16T19:56:23.100Z,19.80
2023-05-16T19:58:35.799Z,20.20
2023-05-16T20:00:48.465Z,18.90
2023-05-16T20:03:01.291Z,19.30
2023-05-16T20:05:14.570Z,19.70
2023-05-16T20:07:27.600Z,19.30
2023-05-16T20:09:40.407Z,19.60
2023-05-16T20:11:53.693Z,18.90
2023-05-16T20:14:06.349Z,19.00
2023-05-16T20:16:20.502Z,19.90
2023-05-16T20:18:33.265Z,18.80
2023-05-16T20:20:45.891Z,17.90
2023-05-16T20:23:00.928Z,18.70
2023-05-16T20:25:13.631Z,17.80
2023-05-16T20:27:26.279Z,16.60
2023-05-16T20:29:38.851Z,15.70
2023-05-16T20:31:51.421Z,15.00
2023-05-16T20:34:04.105Z,14.10
2023-05-16T20:36:16.664Z,14.20
2023-05-16T20:38:29.315Z,14.20
2023-05-16T20:40:41.905Z,13.80
2023-05-16T20:42:54.827Z,13.60
2023-05-16T20:45:07.970Z,13.50
2023-05-16T20:47:20.549Z,13.70
2023-05-16T20:49:35.910Z,13.60
2023-05-16T20:51:48.498Z,14.50
2023-05-16T20:54:01.123Z,13.10
2023-05-16T20:56:13.732Z,13.60
2023-05-16T20:58:26.324Z,14.40
2023-05-16T21:00:38.869Z,13.80
2023-05-16T21:02:51.552Z,13.80
2023-05-16T21:05:22.915Z,14.30
2023-05-16T21:07:36.483Z,14.40
2023-05-16T21:09:49.079Z,13.90
2023-05-16T21:12:01.965Z,13.30
2023-05-16T21:14:14.593Z,13.70
2023-05-16T21:16:29.068Z,12.90
2023-05-16T21:18:41.872Z,13.10
2023-05-16T21:20:54.481Z,12.00
2023-05-16T21:23:07.173Z,12.30
2023-05-16T21:25:19.774Z,11.90
2023-05-16T21:27:32.966Z,11.50
2023-05-16T21:29:45.624Z,11.90
2023-05-16T21:31:58.714Z,11.90
2023-05-16T21:34:11.516Z,11.40
2023-05-16T21:36:24.380Z,11.60
2023-05-16T21:38:37.474Z,11.30
2023-05-16T21:40:50.102Z,11.20
2023-05-16T21:43:02.673Z,10.70
2023-05-16T21:45:16.565Z,10.80
2023-05-16T21:47:29.195Z,11.50
2023-05-16T21:49:41.790Z,11.70
2023-05-16T21:51:54.703Z,10.90
2023-05-16T21:54:07.489Z,10.90
2023-05-16T21:56:20.009Z,12.80
2023-05-16T21:58:32.655Z,11.40
2023-05-16T22:00:45.833Z,10.60
2023-05-16T22:02:58.567Z,11.80
2023-05-16T22:05:11.539Z,10.20
2023-05-16T22:07:28.958Z,11.00
2023-05-16T22:09:41.728Z,10.50
2023-05-16T22:11:54.359Z,10.90
2023-05-16T22:14:06.984Z,10.20
2023-05-16T22:16:19.642Z,13.50
2023-05-16T22:18:33.153Z,10.10
2023-05-16T22:20:46.210Z,11.30
2023-05-16T22:22:58.847Z,10.40
2023-05-16T22:25:11.465Z,10.70
2023-05-16T22:27:24.083Z,10.80
2023-05-16T22:29:39.656Z,10.80
2023-05-16T22:31:52.288Z,10.90
2023-05-16T22:34:05.158Z,10.70
2023-05-16T22:36:17.972Z,10.70
2023-05-16T22:38:31.673Z,10.40
2023-05-16T22:40:44.562Z,11.20
2023-05-16T22:42:57.176Z,10.70
2023-05-16T22:45:10.109Z,11.10
2023-05-16T22:47:22.782Z,11.70
2023-05-16T22:49:35.494Z,12.20
2023-05-16T22:51:51.014Z,12.40
2023-05-16T22:54:03.671Z,12.40
2023-05-16T22:56:16.229Z,12.90
2023-05-16T22:58:28.809Z,12.50
2023-05-16T23:00:41.377Z,12.60
2023-05-16T23:02:54.021Z,13.40
2023-05-16T23:05:07.355Z,12.40
2023-05-16T23:07:19.925Z,12.20
2023-05-16T23:09:32.748Z,11.30
2023-05-16T23:11:45.570Z,11.90
2023-05-16T23:13:58.175Z,10.60
2023-05-16T23:16:10.873Z,10.50
2023-05-16T23:18:23.530Z,11.50
2023-05-16T23:20:36.173Z,11.50
2023-05-16T23:22:48.851Z,10.90
2023-05-16T23:25:01.697Z,10.60
2023-05-16T23:27:14.281Z,11.20
2023-05-16T23:29:26.842Z,10.90
2023-05-16T23:31:39.515Z,10.90
2023-05-16T23:33:52.146Z,10.60
2023-05-16T23:36:05.247Z,12.50
2023-05-16T23:38:17.795Z,11.10
2023-05-16T23:40:30.470Z,11.40
2023-05-16T23:42:43.022Z,10.20
2023-05-16T23:44:55.620Z,10.40
2023-05-16T23:47:08.428Z,10.70
2023-05-16T23:49:21.006Z,10.50
2023-05-16T23:51:45.289Z,11.90
2023-05-16T23:54:06.093Z,10.80
2023-05-16T23:56:18.764Z,12.90
2023-05-16T23:58:31.384Z,10.20
